Time;durP1;ratioP1;P1;durP2;ratioP2;P2;SDS_P1;SDS_P2;PMS_P1;PMS_P2;Temp;Humidity;BMP_temperature;BMP_pressure;BME280_temperature;BME280_humidity;BME280_pressure;Samples;Min_cycle;Max_cycle;Signal;HPM_P1;HPM_P2
2021/03/21 00:00:39;;;;;;;5.73;4.37;;;2.80;99.90;;;;;;5084421;28;20434;-74
2021/03/21 00:03:05;;;;;;;24.90;8.83;;;2.80;99.90;;;;;;5081549;28;20180;-74
2021/03/21 00:05:31;;;;;;;14.13;6.90;;;2.80;99.90;;;;;;5084034;28;20902;-75
2021/03/21 00:07:59;;;;;;;11.63;6.13;;;2.80;99.90;;;;;;5080852;28;20578;-75
2021/03/21 00:10:27;;;;;;;6.50;4.47;;;2.80;99.90;;;;;;5081106;28;20743;-74
2021/03/21 00:12:54;;;;;;;10.03;4.50;;;2.70;99.90;;;;;;5080334;28;20430;-74
2021/03/21 00:15:20;;;;;;;9.70;5.80;;;2.70;99.90;;;;;;5082585;28;20414;-75
2021/03/21 00:17:46;;;;;;;8.97;4.70;;;2.80;99.90;;;;;;5079641;28;20971;-74
2021/03/21 00:20:14;;;;;;;15.90;5.33;;;2.80;99.90;;;;;;5082434;28;20438;-74
2021/03/21 00:22:40;;;;;;;13.13;5.53;;;2.70;99.90;;;;;;5081917;28;20429;-74
2021/03/21 00:25:08;;;;;;;5.73;4.00;;;2.70;99.90;;;;;;5081418;28;20432;-75
2021/03/21 00:27:34;;;;;;;8.03;4.30;;;2.70;99.90;;;;;;5082861;28;20828;-74
2021/03/21 00:29:59;;;;;;;6.53;4.43;;;2.70;99.90;;;;;;5079982;28;20502;-74
2021/03/21 00:32:25;;;;;;;3.80;3.33;;;2.70;99.90;;;;;;5083624;28;20180;-74
2021/03/21 00:34:50;;;;;;;5.70;4.07;;;2.70;99.90;;;;;;5080708;28;20231;-74
2021/03/21 00:37:16;;;;;;;20.23;5.97;;;2.60;99.90;;;;;;5081212;28;20195;-74
2021/03/21 00:39:41;;;;;;;8.90;4.97;;;2.60;99.90;;;;;;5083148;28;20189;-75
2021/03/21 00:42:07;;;;;;;9.93;4.70;;;2.60;99.90;;;;;;5087163;28;20208;-74
2021/03/21 00:44:33;;;;;;;9.23;4.83;;;2.70;99.90;;;;;;5087709;28;20579;-75
2021/03/21 00:46:58;;;;;;;8.10;4.10;;;2.70;99.90;;;;;;5080140;28;20429;-75
2021/03/21 00:49:24;;;;;;;8.93;4.40;;;2.70;99.90;;;;;;5083771;28;20648;-75
2021/03/21 00:51:49;;;;;;;4.83;3.80;;;2.70;99.90;;;;;;5080245;28;20201;-75
2021/03/21 00:54:15;;;;;;;10.40;4.40;;;2.70;99.90;;;;;;5083053;28;20180;-75
2021/03/21 00:56:41;;;;;;;24.40;8.00;;;2.70;99.90;;;;;;5086951;28;20184;-75
2021/03/21 00:59:08;;;;;;;11.67;7.63;;;2.70;99.90;;;;;;5083240;28;20174;-75
2021/03/21 01:01:34;;;;;;;7.60;4.30;;;2.70;99.90;;;;;;5081090;28;20442;-75
2021/03/21 01:04:01;;;;;;;6.90;4.47;;;2.70;99.90;;;;;;5080813;28;20443;-76
2021/03/21 01:06:26;;;;;;;6.73;4.00;;;2.70;99.90;;;;;;5079476;28;20421;-75
2021/03/21 01:08:58;;;;;;;7.13;4.90;;;2.70;99.90;;;;;;5079406;28;20468;-75
2021/03/21 01:11:30;;;;;;;3.43;2.47;;;2.60;99.90;;;;;;5082332;28;20188;-75
2021/03/21 01:13:57;;;;;;;4.07;3.30;;;2.60;99.90;;;;;;5079498;28;20783;-75
2021/03/21 01:16:38;;;;;;;9.70;3.60;;;2.60;99.90;;;;;;5080099;28;20397;-75
2021/03/21 01:19:05;;;;;;;4.40;3.43;;;2.60;99.90;;;;;;5082487;28;20381;-75
2021/03/21 01:21:34;;;;;;;6.20;3.60;;;2.70;99.90;;;;;;5079870;28;20423;-75
2021/03/21 01:23:59;;;;;;;7.30;3.67;;;2.70;99.90;;;;;;5082375;28;20398;-75
2021/03/21 01:26:27;;;;;;;5.23;3.80;;;2.70;99.90;;;;;;5079726;28;20505;-75
2021/03/21 01:28:58;;;;;;;5.00;3.63;;;2.70;99.90;;;;;;5079248;28;20246;-75
2021/03/21 01:31:25;;;;;;;4.37;2.83;;;2.60;99.90;;;;;;5083118;28;20766;-74
2021/03/21 01:33:51;;;;;;;2.93;2.57;;;2.70;99.90;;;;;;5077878;28;21002;-75
2021/03/21 01:36:23;;;;;;;5.50;3.10;;;2.70;99.90;;;;;;5082253;28;20419;-75
2021/03/21 01:38:50;;;;;;;8.03;4.17;;;2.70;99.90;;;;;;5079559;28;20419;-74
2021/03/21 01:41:21;;;;;;;8.83;4.13;;;2.70;99.90;;;;;;5081085;28;20435;-74
2021/03/21 01:43:47;;;;;;;9.33;4.03;;;2.70;99.90;;;;;;5079666;28;20439;-74
2021/03/21 01:46:21;;;;;;;8.00;4.00;;;2.70;99.90;;;;;;5081458;28;20447;-74
2021/03/21 01:48:46;;;;;;;12.30;3.93;;;2.60;99.90;;;;;;5079681;28;20435;-74
2021/03/21 01:51:15;;;;;;;11.67;5.07;;;2.70;99.90;;;;;;5081288;28;20946;-75
2021/03/21 01:53:43;;;;;;;10.60;4.60;;;2.60;99.90;;;;;;5080362;28;20180;-74
2021/03/21 01:56:11;;;;;;;7.30;4.07;;;2.60;99.90;;;;;;5065250;28;20922;-75
2021/03/21 01:58:37;;;;;;;11.47;4.83;;;2.70;99.90;;;;;;5080943;28;20546;-75
2021/03/21 02:01:17;;;;;;;9.23;4.20;;;2.70;99.90;;;;;;5079777;28;20417;-75
2021/03/21 02:03:43;;;;;;;11.50;3.53;;;2.60;99.90;;;;;;5079948;28;20426;-75
2021/03/21 02:06:41;;;;;;;8.50;4.10;;;2.60;99.90;;;;;;5080711;28;20849;-75
2021/03/21 02:09:56;;;;;;;6.03;3.90;;;2.60;99.90;;;;;;5080153;28;20833;-75
2021/03/21 02:12:34;;;;;;;6.43;4.23;;;2.60;99.90;;;;;;5019730;28;20426;-75
2021/03/21 02:15:20;;;;;;;7.87;3.83;;;2.60;99.90;;;;;;5079102;28;20430;-75
2021/03/21 02:17:56;;;;;;;8.27;3.70;;;2.60;99.90;;;;;;5082442;28;20401;-75
2021/03/21 02:20:55;;;;;;;6.33;3.70;;;2.60;99.90;;;;;;5078865;28;20451;-75
2021/03/21 02:23:51;;;;;;;5.17;3.73;;;2.60;99.90;;;;;;5081879;28;20404;-75
2021/03/21 02:26:44;;;;;;;3.33;2.77;;;2.60;99.90;;;;;;5081621;28;20430;-75
2021/03/21 02:29:19;;;;;;;5.03;3.57;;;2.60;99.90;;;;;;5080315;28;20418;-75
2021/03/21 02:31:53;;;;;;;4.57;3.67;;;2.70;99.90;;;;;;5077937;28;20438;-75
2021/03/21 02:34:29;;;;;;;7.20;4.27;;;2.70;99.90;;;;;;5079157;28;20409;-75
2021/03/21 02:37:20;;;;;;;7.23;3.23;;;2.60;99.90;;;;;;5078828;28;20450;-75
2021/03/21 02:39:52;;;;;;;3.73;2.73;;;2.60;99.90;;;;;;5081031;28;20457;-75
2021/03/21 02:42:24;;;;;;;3.20;2.90;;;2.60;99.90;;;;;;5079092;28;20409;-75
2021/03/21 02:44:56;;;;;;;5.63;2.77;;;2.60;99.90;;;;;;5081746;28;20414;-75
2021/03/21 02:47:28;;;;;;;5.90;2.73;;;2.70;99.90;;;;;;5078677;28;20455;-75
2021/03/21 02:49:57;;;;;;;4.00;3.20;;;2.70;99.90;;;;;;5078517;28;20498;-73
2021/03/21 02:52:52;;;;;;;5.20;3.90;;;2.70;99.90;;;;;;5078840;28;20487;-75
2021/03/21 02:55:29;;;;;;;4.63;3.40;;;2.70;99.90;;;;;;5080065;28;20424;-74
2021/03/21 02:58:14;;;;;;;4.20;3.57;;;2.70;99.90;;;;;;5082321;28;20419;-75
2021/03/21 03:00:48;;;;;;;5.83;4.07;;;2.70;99.90;;;;;;5083690;28;21034;-75
2021/03/21 03:03:16;;;;;;;5.20;3.93;;;2.70;99.90;;;;;;5083506;28;20926;-75
2021/03/21 03:05:45;;;;;;;6.00;3.00;;;2.70;99.90;;;;;;5084090;28;20890;-75
2021/03/21 03:08:28;;;;;;;5.20;4.17;;;2.70;99.90;;;;;;5083553;28;21062;-74
2021/03/21 03:10:59;;;;;;;5.03;3.37;;;2.70;99.90;;;;;;5082029;28;20460;-75
2021/03/21 03:13:38;;;;;;;5.20;3.67;;;2.70;99.90;;;;;;5081883;28;20426;-74
2021/03/21 03:16:14;;;;;;;3.83;3.27;;;2.70;99.90;;;;;;5082945;28;20419;-74
2021/03/21 03:18:44;;;;;;;5.63;3.60;;;2.70;99.90;;;;;;5083541;28;20421;-75
2021/03/21 03:21:36;;;;;;;5.03;3.40;;;2.70;99.90;;;;;;5083556;28;20907;-75
2021/03/21 03:24:22;;;;;;;6.33;3.30;;;2.70;99.90;;;;;;5082023;28;20459;-75
2021/03/21 03:26:57;;;;;;;3.03;2.80;;;2.70;99.90;;;;;;5081133;28;20450;-75
2021/03/21 03:29:30;;;;;;;4.40;2.90;;;2.60;99.90;;;;;;5085042;28;20460;-75
2021/03/21 03:31:57;;;;;;;6.47;3.97;;;2.60;99.90;;;;;;5081562;28;20492;-75
2021/03/21 03:34:24;;;;;;;6.90;3.70;;;2.60;99.90;;;;;;5083852;28;20436;-75
2021/03/21 03:36:51;;;;;;;4.93;2.80;;;2.60;99.90;;;;;;5081869;28;20415;-74
2021/03/21 03:39:16;;;;;;;3.47;2.50;;;2.60;99.90;;;;;;5084014;28;20390;-75
2021/03/21 03:41:53;;;;;;;3.83;2.97;;;2.60;99.90;;;;;;5082756;28;20452;-75
2021/03/21 03:44:40;;;;;;;5.97;3.37;;;2.60;99.90;;;;;;5084068;28;20225;-75
2021/03/21 03:47:14;;;;;;;3.97;2.47;;;2.60;99.90;;;;;;5082444;28;20436;-74
2021/03/21 03:49:57;;;;;;;5.90;3.47;;;2.60;99.90;;;;;;5082994;28;20433;-75
2021/03/21 03:52:44;;;;;;;5.70;2.73;;;2.60;99.90;;;;;;5080002;28;20431;-75
2021/03/21 03:55:16;;;;;;;2.90;2.70;;;2.60;99.90;;;;;;5082921;28;20473;-75
2021/03/21 03:57:52;;;;;;;10.13;3.00;;;2.70;99.90;;;;;;5082806;28;20430;-75
2021/03/21 04:00:26;;;;;;;5.13;3.30;;;2.70;99.90;;;;;;5083479;28;20405;-74
2021/03/21 04:03:00;;;;;;;5.30;3.87;;;2.70;99.90;;;;;;5081242;28;20411;-75
2021/03/21 04:05:38;;;;;;;6.10;3.77;;;2.60;99.90;;;;;;5079908;28;20412;-75
2021/03/21 04:08:21;;;;;;;3.20;2.90;;;2.70;99.90;;;;;;5081883;28;20462;-75
2021/03/21 04:11:06;;;;;;;4.10;3.50;;;2.70;99.90;;;;;;5080093;28;20894;-75
2021/03/21 04:13:42;;;;;;;5.17;3.43;;;2.70;99.90;;;;;;5081177;28;20417;-75
2021/03/21 04:16:14;;;;;;;3.23;3.03;;;2.70;99.90;;;;;;5081633;28;20447;-75
2021/03/21 04:19:13;;;;;;;4.23;3.27;;;2.70;99.90;;;;;;5080965;28;20437;-75
2021/03/21 04:21:46;;;;;;;5.50;3.10;;;2.70;99.90;;;;;;5036538;28;20943;-75
2021/03/21 04:24:22;;;;;;;6.40;3.80;;;2.70;99.90;;;;;;5082322;28;20451;-75
2021/03/21 04:27:05;;;;;;;9.80;5.07;;;2.70;99.90;;;;;;5079798;28;20438;-75
2021/03/21 04:29:47;;;;;;;5.23;3.43;;;2.60;99.90;;;;;;5080868;28;20415;-75
2021/03/21 04:32:17;;;;;;;7.13;3.83;;;2.70;99.90;;;;;;5081781;28;20955;-75
2021/03/21 04:34:51;;;;;;;5.73;3.57;;;2.70;99.90;;;;;;5082594;28;20905;-75
2021/03/21 04:37:18;;;;;;;4.73;3.70;;;2.60;99.90;;;;;;5081383;28;20785;-75
2021/03/21 04:39:45;;;;;;;4.80;3.60;;;2.60;99.90;;;;;;5082433;28;20419;-75
2021/03/21 04:42:21;;;;;;;4.33;3.07;;;2.60;99.90;;;;;;5081733;28;20939;-74
2021/03/21 04:44:52;;;;;;;7.37;3.43;;;2.60;99.90;;;;;;5082769;28;20935;-75
2021/03/21 04:47:30;;;;;;;3.50;3.20;;;2.60;99.90;;;;;;5080878;28;20970;-74
2021/03/21 04:49:56;;;;;;;3.93;2.67;;;2.60;99.90;;;;;;5080080;28;21096;-74
2021/03/21 04:52:37;;;;;;;3.87;2.50;;;2.60;99.90;;;;;;5083288;28;20377;-75
2021/03/21 04:55:09;;;;;;;3.87;2.73;;;2.60;99.90;;;;;;5079980;28;20430;-75
2021/03/21 04:57:41;;;;;;;3.03;2.63;;;2.60;99.90;;;;;;5082355;28;20529;-74
2021/03/21 05:00:15;;;;;;;2.80;2.50;;;2.60;99.90;;;;;;5081040;28;20413;-75
2021/03/21 05:02:44;;;;;;;2.13;1.87;;;2.60;99.90;;;;;;5081377;28;20441;-75
2021/03/21 05:05:21;;;;;;;5.10;3.10;;;2.70;99.90;;;;;;5081583;28;20788;-75
2021/03/21 05:07:53;;;;;;;4.23;2.87;;;2.60;99.90;;;;;;5080600;28;20457;-75
2021/03/21 05:10:28;;;;;;;2.83;2.63;;;2.70;99.90;;;;;;5082668;28;20427;-75
2021/03/21 05:13:33;;;;;;;2.47;2.27;;;2.70;99.90;;;;;;5079703;28;20460;-75
2021/03/21 05:16:02;;;;;;;3.27;2.70;;;2.70;99.90;;;;;;5079745;28;20389;-75
2021/03/21 05:18:38;;;;;;;6.33;2.73;;;2.70;99.90;;;;;;5083093;28;20410;-75
2021/03/21 05:21:17;;;;;;;3.33;2.67;;;2.70;99.90;;;;;;5080510;28;20809;-75
2021/03/21 05:24:11;;;;;;;5.03;3.03;;;2.80;99.90;;;;;;5080481;28;20906;-75
2021/03/21 05:26:46;;;;;;;2.57;2.37;;;2.70;99.90;;;;;;5080660;28;20949;-75
2021/03/21 05:29:26;;;;;;;2.90;2.70;;;2.70;99.90;;;;;;5079587;28;20449;-75
2021/03/21 05:31:52;;;;;;;7.13;2.60;;;2.70;99.90;;;;;;5082742;28;20489;-75
2021/03/21 05:34:18;;;;;;;4.57;2.37;;;2.70;99.90;;;;;;5079973;28;20417;-75
2021/03/21 05:36:56;;;;;;;7.20;2.40;;;2.80;99.90;;;;;;5081563;28;20426;-75
2021/03/21 05:39:42;;;;;;;5.10;2.70;;;2.80;99.90;;;;;;5079609;28;20181;-75
2021/03/21 05:42:35;;;;;;;4.50;2.93;;;2.80;99.90;;;;;;5081934;28;20402;-75
2021/03/21 05:45:23;;;;;;;4.97;3.43;;;2.80;99.90;;;;;;5079524;28;20438;-75
2021/03/21 05:48:14;;;;;;;3.83;2.70;;;2.80;99.90;;;;;;5079770;28;20463;-75
2021/03/21 05:50:40;;;;;;;4.30;3.07;;;2.80;99.90;;;;;;5080345;28;20625;-75
2021/03/21 05:53:46;;;;;;;3.33;2.50;;;2.90;99.90;;;;;;5081654;28;20576;-75
2021/03/21 05:56:46;;;;;;;11.53;2.70;;;2.90;99.90;;;;;;5081323;28;20181;-74
2021/03/21 05:59:49;;;;;;;2.87;2.20;;;2.90;99.90;;;;;;5079352;28;20414;-73
2021/03/21 06:02:23;;;;;;;3.80;2.63;;;2.90;99.90;;;;;;5081227;28;20441;-72
2021/03/21 06:04:54;;;;;;;6.93;2.63;;;3.00;99.90;;;;;;5079892;28;20484;-72
2021/03/21 06:07:51;;;;;;;3.00;2.63;;;3.00;99.90;;;;;;5082183;28;20509;-72
2021/03/21 06:10:55;;;;;;;2.87;2.20;;;3.00;99.90;;;;;;5081425;28;20447;-71
2021/03/21 06:13:27;;;;;;;3.23;2.43;;;3.10;99.90;;;;;;5081777;28;20448;-71
2021/03/21 06:16:15;;;;;;;2.77;2.27;;;3.20;99.90;;;;;;5079008;28;20404;-72
2021/03/21 06:18:59;;;;;;;4.63;2.30;;;3.20;99.90;;;;;;5080232;28;20438;-72
2021/03/21 06:21:45;;;;;;;3.10;2.80;;;3.30;99.90;;;;;;5079025;28;20503;-72
2021/03/21 06:24:26;;;;;;;3.07;2.77;;;3.30;99.90;;;;;;5080233;28;20526;-72
2021/03/21 06:27:01;;;;;;;4.83;3.03;;;3.40;99.90;;;;;;5078100;28;20403;-71
2021/03/21 06:30:15;;;;;;;10.20;3.07;;;3.40;99.90;;;;;;5082563;28;20401;-71
2021/03/21 06:33:06;;;;;;;3.60;2.30;;;3.40;99.90;;;;;;5066314;28;20430;-72
2021/03/21 06:35:56;;;;;;;4.43;2.47;;;3.40;99.90;;;;;;5082951;28;20437;-71
2021/03/21 06:38:43;;;;;;;4.00;3.00;;;3.40;99.90;;;;;;5087412;28;20421;-70
2021/03/21 06:41:58;;;;;;;8.87;3.03;;;3.40;99.90;;;;;;5087310;28;20425;-72
2021/03/21 06:44:26;;;;;;;3.03;2.70;;;3.50;99.90;;;;;;5068151;28;20940;-71
2021/03/21 06:47:13;;;;;;;3.30;3.00;;;3.50;99.90;;;;;;5082580;28;20435;-71
2021/03/21 06:50:06;;;;;;;2.97;2.77;;;3.60;99.90;;;;;;5083505;28;20794;-72
2021/03/21 06:53:04;;;;;;;4.37;2.47;;;3.60;99.90;;;;;;5082649;28;20425;-71
2021/03/21 06:55:41;;;;;;;3.80;3.50;;;3.60;99.90;;;;;;5060713;28;20459;-71
2021/03/21 06:58:32;;;;;;;3.17;2.17;;;3.70;99.90;;;;;;5082421;28;20984;-70
2021/03/21 07:01:19;;;;;;;3.70;2.90;;;3.70;99.90;;;;;;5086018;28;20438;-71
2021/03/21 07:04:03;;;;;;;4.90;2.47;;;3.60;99.90;;;;;;5084095;28;20422;-71
2021/03/21 07:07:22;;;;;;;4.33;3.20;;;3.70;99.90;;;;;;5082220;28;20907;-72
2021/03/21 07:10:05;;;;;;;5.10;2.30;;;3.70;99.90;;;;;;5084400;28;20506;-72
2021/03/21 07:13:08;;;;;;;4.40;2.97;;;3.80;99.90;;;;;;5082099;28;20421;-72
2021/03/21 07:16:04;;;;;;;2.57;2.37;;;3.80;99.90;;;;;;5082470;28;20421;-72
2021/03/21 07:18:55;;;;;;;2.23;2.13;;;3.80;99.90;;;;;;5082072;28;20411;-71
2021/03/21 07:21:43;;;;;;;2.73;2.43;;;3.90;99.90;;;;;;5082235;28;20427;-72
2021/03/21 07:24:30;;;;;;;2.80;2.60;;;4.00;99.90;;;;;;5083186;28;20431;-72
2021/03/21 07:27:24;;;;;;;2.30;2.10;;;4.00;99.90;;;;;;5082059;28;20800;-72
2021/03/21 07:29:52;;;;;;;2.17;1.97;;;4.00;99.90;;;;;;5084645;28;20502;-72
2021/03/21 07:32:32;;;;;;;5.10;2.60;;;4.00;99.90;;;;;;5082348;28;20847;-71
2021/03/21 07:35:16;;;;;;;3.03;2.10;;;4.00;99.90;;;;;;5082716;28;20390;-72
2021/03/21 07:37:59;;;;;;;3.40;2.67;;;4.00;99.90;;;;;;5086702;28;20396;-72
2021/03/21 07:40:39;;;;;;;3.07;2.30;;;4.00;99.90;;;;;;5080199;28;20426;-72
2021/03/21 07:43:23;;;;;;;2.97;2.63;;;4.10;99.90;;;;;;5084256;28;20491;-72
2021/03/21 07:46:00;;;;;;;6.00;2.73;;;4.10;99.90;;;;;;5079435;28;21911;-72
2021/03/21 07:48:42;;;;;;;5.50;2.80;;;4.10;99.90;;;;;;5086070;28;20479;-72
2021/03/21 07:51:33;;;;;;;2.77;2.57;;;4.10;99.90;;;;;;5082523;28;20489;-72
2021/03/21 07:54:37;;;;;;;5.20;2.70;;;4.10;99.90;;;;;;5072332;28;20423;-72
2021/03/21 07:57:41;;;;;;;3.80;2.90;;;4.10;99.90;;;;;;5082186;28;20445;-72
2021/03/21 08:00:10;;;;;;;2.87;2.67;;;4.20;99.90;;;;;;4999552;28;20400;-72
2021/03/21 08:02:36;;;;;;;3.77;3.17;;;4.20;99.90;;;;;;5000075;28;20437;-71
2021/03/21 08:05:13;;;;;;;4.90;3.13;;;4.20;99.90;;;;;;5041957;28;20428;-72
2021/03/21 08:07:42;;;;;;;2.73;2.53;;;4.20;99.90;;;;;;5082719;28;20196;-71
2021/03/21 08:10:30;;;;;;;4.23;2.93;;;4.20;99.90;;;;;;5081982;28;20413;-72
2021/03/21 08:13:14;;;;;;;4.63;3.80;;;4.20;99.90;;;;;;5080615;28;20944;-72
2021/03/21 08:15:40;;;;;;;5.27;4.77;;;4.30;99.90;;;;;;5082146;28;20844;-71
2021/03/21 08:18:22;;;;;;;4.07;2.60;;;4.40;99.90;;;;;;5083183;28;20440;-71
2021/03/21 08:20:48;;;;;;;5.47;4.50;;;4.40;99.90;;;;;;5082973;28;20204;-72
2021/03/21 08:23:15;;;;;;;6.47;5.80;;;4.40;99.90;;;;;;5082618;28;20405;-72
2021/03/21 08:25:42;;;;;;;5.33;3.53;;;4.50;99.90;;;;;;5086081;28;20557;-71
2021/03/21 08:28:14;;;;;;;4.90;3.97;;;4.60;99.90;;;;;;5084458;28;20455;-73
2021/03/21 08:30:56;;;;;;;3.40;2.87;;;4.60;99.90;;;;;;5081784;28;20486;-72
2021/03/21 08:33:29;;;;;;;3.20;3.00;;;4.60;99.90;;;;;;5080682;28;20427;-72
2021/03/21 08:36:06;;;;;;;3.77;3.40;;;4.60;99.90;;;;;;5080352;28;20787;-72
2021/03/21 08:38:33;;;;;;;3.97;3.13;;;4.60;99.90;;;;;;5080606;28;20433;-72
2021/03/21 08:41:01;;;;;;;8.03;3.80;;;4.70;99.90;;;;;;5083762;28;20450;-72
2021/03/21 08:43:30;;;;;;;2.83;2.63;;;4.80;99.90;;;;;;5080197;28;20426;-72
2021/03/21 08:46:01;;;;;;;3.77;3.20;;;4.90;99.90;;;;;;5080066;28;20951;-71
2021/03/21 08:48:34;;;;;;;4.90;3.30;;;5.00;99.90;;;;;;5080519;28;20506;-72
2021/03/21 08:51:21;;;;;;;3.03;2.70;;;5.10;99.90;;;;;;5079559;28;20457;-72
2021/03/21 08:54:01;;;;;;;3.47;3.17;;;5.10;99.90;;;;;;5080519;28;20490;-72
2021/03/21 08:56:34;;;;;;;3.83;3.40;;;5.10;99.90;;;;;;5079785;28;20410;-72
2021/03/21 08:59:06;;;;;;;3.60;3.30;;;5.10;99.90;;;;;;5081917;28;20792;-71
2021/03/21 09:01:32;;;;;;;4.17;3.00;;;5.00;99.90;;;;;;5080064;28;20444;-72
2021/03/21 09:04:26;;;;;;;5.57;2.90;;;5.00;99.90;;;;;;5086192;28;20434;-71
2021/03/21 09:06:52;;;;;;;10.10;3.70;;;5.10;99.90;;;;;;5080749;28;20424;-71
2021/03/21 09:09:24;;;;;;;4.23;3.37;;;5.10;99.90;;;;;;5085204;28;20505;-71
2021/03/21 09:11:59;;;;;;;3.63;3.17;;;5.10;99.90;;;;;;5084272;28;20201;-71
2021/03/21 09:14:29;;;;;;;6.50;3.47;;;5.10;99.90;;;;;;5079634;28;20460;-71
2021/03/21 09:17:17;;;;;;;3.80;3.50;;;5.10;99.90;;;;;;5079437;28;20557;-71
2021/03/21 09:19:42;;;;;;;5.67;3.13;;;5.20;99.90;;;;;;5081003;28;20941;-71
2021/03/21 09:22:30;;;;;;;6.50;4.67;;;5.20;99.90;;;;;;5081428;28;20433;-71
2021/03/21 09:25:03;;;;;;;3.77;3.20;;;5.20;99.90;;;;;;5085126;28;20201;-71
2021/03/21 09:27:39;;;;;;;6.03;3.83;;;5.20;99.90;;;;;;5084792;28;20500;-71
2021/03/21 09:30:19;;;;;;;4.20;3.60;;;5.20;99.90;;;;;;5084226;28;21159;-72
2021/03/21 09:32:46;;;;;;;4.90;3.70;;;5.20;99.90;;;;;;5083634;28;20802;-71
2021/03/21 09:35:29;;;;;;;5.47;3.77;;;5.30;99.90;;;;;;5087561;28;20837;-72
2021/03/21 09:37:59;;;;;;;4.50;3.77;;;5.30;99.90;;;;;;5079240;28;20528;-71
2021/03/21 09:40:38;;;;;;;7.30;4.07;;;5.30;99.90;;;;;;5079143;28;20444;-72
2021/03/21 09:43:07;;;;;;;6.13;4.00;;;5.50;99.90;;;;;;5079860;28;20780;-72
2021/03/21 09:45:33;;;;;;;4.60;4.10;;;5.50;99.90;;;;;;5081822;28;20868;-72
2021/03/21 09:48:04;;;;;;;7.00;3.97;;;5.50;99.90;;;;;;5079010;28;20499;-72
2021/03/21 09:50:53;;;;;;;4.30;3.90;;;5.50;99.90;;;;;;5079076;28;20199;-72
2021/03/21 09:53:51;;;;;;;6.63;4.40;;;5.60;99.90;;;;;;5079849;28;20399;-72
2021/03/21 09:56:45;;;;;;;6.00;4.57;;;5.60;99.90;;;;;;5081721;28;20417;-72
2021/03/21 09:59:55;;;;;;;4.63;3.67;;;5.70;99.90;;;;;;5080597;28;20443;-72
2021/03/21 10:02:51;;;;;;;5.33;4.13;;;5.80;99.90;;;;;;5081291;28;20433;-72
2021/03/21 10:05:32;;;;;;;12.13;7.30;;;5.90;99.90;;;;;;5086410;28;20432;-72
2021/03/21 10:08:39;;;;;;;8.30;4.30;;;6.00;99.90;;;;;;5084849;28;20831;-72
2021/03/21 10:11:11;;;;;;;5.07;4.57;;;6.20;99.90;;;;;;5081881;28;20437;-71
2021/03/21 10:13:43;;;;;;;5.43;3.67;;;6.30;99.90;;;;;;5083001;28;20447;-72
2021/03/21 10:16:26;;;;;;;7.17;4.70;;;6.30;99.90;;;;;;5084650;28;20429;-72
2021/03/21 10:18:56;;;;;;;5.50;4.80;;;6.40;99.90;;;;;;5078921;28;20960;-72
2021/03/21 10:21:24;;;;;;;5.83;5.23;;;6.40;99.90;;;;;;5081904;28;20506;-73
2021/03/21 10:23:59;;;;;;;6.00;4.50;;;6.50;99.90;;;;;;5078785;28;21079;-71
2021/03/21 10:26:30;;;;;;;6.00;4.40;;;6.40;99.90;;;;;;5085811;28;20501;-72
2021/03/21 10:29:01;;;;;;;7.20;4.90;;;6.40;99.90;;;;;;5080860;28;20519;-72
2021/03/21 10:31:31;;;;;;;5.70;4.50;;;6.30;99.90;;;;;;5082143;28;20451;-72
2021/03/21 10:34:03;;;;;;;7.37;5.03;;;6.30;99.90;;;;;;5085646;28;20837;-72
2021/03/21 10:36:37;;;;;;;9.13;4.87;;;6.40;99.90;;;;;;5083943;28;20437;-72
2021/03/21 10:39:07;;;;;;;4.90;4.40;;;6.30;99.90;;;;;;5076954;28;20771;-71
2021/03/21 10:41:57;;;;;;;5.80;4.30;;;6.20;99.90;;;;;;5083570;28;21035;-72
2021/03/21 10:44:32;;;;;;;5.97;5.20;;;6.20;99.90;;;;;;5085225;28;20465;-71
2021/03/21 10:47:05;;;;;;;7.20;4.73;;;6.10;99.90;;;;;;5080647;28;20424;-74
2021/03/21 10:49:43;;;;;;;8.70;5.30;;;6.10;99.90;;;;;;5081052;28;20413;-74
2021/03/21 10:52:22;;;;;;;8.47;6.17;;;6.10;99.90;;;;;;5079392;28;20430;-74
2021/03/21 10:54:48;;;;;;;11.30;5.90;;;6.00;99.90;;;;;;5076229;28;20800;-74
2021/03/21 10:57:35;;;;;;;7.93;5.43;;;5.90;99.90;;;;;;5088548;28;20469;-74
2021/03/21 11:00:18;;;;;;;7.70;5.90;;;5.90;99.90;;;;;;5080464;28;20199;-73
2021/03/21 11:02:47;;;;;;;7.83;6.53;;;5.90;99.90;;;;;;5078215;28;20432;-72
2021/03/21 11:05:31;;;;;;;7.73;5.73;;;5.90;99.90;;;;;;5081334;28;20593;-72
2021/03/21 11:08:03;;;;;;;12.00;8.63;;;6.00;99.90;;;;;;5080036;28;20465;-72
2021/03/21 11:10:31;;;;;;;11.77;8.60;;;6.00;99.90;;;;;;5082919;28;20435;-72
2021/03/21 11:12:57;;;;;;;12.73;9.50;;;6.00;99.90;;;;;;5077830;28;20413;-72
2021/03/21 11:15:44;;;;;;;10.00;7.27;;;6.10;99.90;;;;;;5086689;28;20417;-72
2021/03/21 11:18:18;;;;;;;10.27;7.10;;;6.30;99.90;;;;;;5089272;28;20283;-73
2021/03/21 11:20:45;;;;;;;7.67;5.67;;;6.40;99.90;;;;;;5082511;28;20443;-73
2021/03/21 11:23:21;;;;;;;7.50;5.80;;;6.50;99.90;;;;;;5083229;28;20419;-73
2021/03/21 11:25:48;;;;;;;9.13;6.30;;;6.50;99.90;;;;;;5081081;28;20473;-73
2021/03/21 11:28:25;;;;;;;9.27;6.83;;;6.50;99.90;;;;;;5083482;28;20489;-72
2021/03/21 11:30:57;;;;;;;6.07;5.37;;;6.50;99.90;;;;;;5085517;28;20449;-73
2021/03/21 11:33:34;;;;;;;9.00;6.63;;;6.60;99.90;;;;;;5088748;28;20412;-72
2021/03/21 11:36:14;;;;;;;8.57;6.13;;;6.40;99.90;;;;;;5087999;28;20453;-73
2021/03/21 11:38:41;;;;;;;8.20;6.80;;;6.50;99.90;;;;;;5087401;28;20422;-73
2021/03/21 11:41:37;;;;;;;7.00;5.20;;;6.60;99.90;;;;;;5089004;28;20442;-72
2021/03/21 11:44:15;;;;;;;7.63;5.93;;;6.70;99.90;;;;;;5063683;28;20433;-72
2021/03/21 11:46:40;;;;;;;6.10;5.50;;;6.60;99.90;;;;;;5089823;28;20394;-71
2021/03/21 11:49:07;;;;;;;7.17;6.23;;;6.50;99.90;;;;;;5086247;28;20539;-71
2021/03/21 11:51:33;;;;;;;6.47;5.20;;;6.60;99.90;;;;;;5085026;28;20209;-71
2021/03/21 11:53:59;;;;;;;7.10;5.13;;;6.70;99.90;;;;;;5083072;28;20433;-71
2021/03/21 11:56:32;;;;;;;5.47;4.60;;;6.70;99.90;;;;;;5086802;28;20799;-71
2021/03/21 11:59:11;;;;;;;6.90;6.20;;;6.50;99.90;;;;;;5086735;28;20418;-71
2021/03/21 12:01:50;;;;;;;7.87;5.77;;;6.50;99.90;;;;;;5085649;28;20449;-71
2021/03/21 12:04:39;;;;;;;4.90;4.40;;;6.40;99.90;;;;;;5085915;28;20574;-72
2021/03/21 12:07:05;;;;;;;8.37;5.23;;;6.40;99.90;;;;;;5081589;28;20958;-71
2021/03/21 12:09:33;;;;;;;6.03;4.93;;;6.50;99.90;;;;;;5084051;28;20420;-71
2021/03/21 12:12:02;;;;;;;5.50;5.00;;;6.60;99.90;;;;;;5086115;28;20520;-70
2021/03/21 12:14:31;;;;;;;6.03;4.87;;;6.60;99.90;;;;;;5085509;28;20505;-71
2021/03/21 12:17:18;;;;;;;8.33;5.00;;;6.60;99.90;;;;;;5083018;28;20468;-71
2021/03/21 12:19:43;;;;;;;7.90;5.90;;;6.70;99.90;;;;;;5082212;28;20515;-72
2021/03/21 12:22:33;;;;;;;7.53;5.30;;;6.70;99.90;;;;;;5084332;28;20558;-72
2021/03/21 12:25:17;;;;;;;7.73;5.27;;;6.80;99.90;;;;;;5082435;28;20241;-72
2021/03/21 12:27:43;;;;;;;3.73;3.23;;;6.80;99.90;;;;;;5081881;28;20458;-71
2021/03/21 12:30:20;;;;;;;4.70;3.70;;;6.60;99.90;;;;;;5082335;28;20416;-72
2021/03/21 12:32:49;;;;;;;4.03;3.73;;;6.60;99.90;;;;;;5085990;28;20211;-71
2021/03/21 12:35:27;;;;;;;8.37;5.83;;;6.70;99.90;;;;;;5084344;28;20438;-71
2021/03/21 12:38:00;;;;;;;6.90;5.17;;;6.90;99.90;;;;;;5080242;28;20425;-72
2021/03/21 12:40:52;;;;;;;7.67;5.80;;;7.00;99.90;;;;;;5086806;28;20468;-72
2021/03/21 12:43:25;;;;;;;12.33;6.20;;;7.10;99.90;;;;;;5082476;28;20424;-71
2021/03/21 12:46:03;;;;;;;6.20;4.60;;;7.20;99.90;;;;;;5080257;28;20420;-71
2021/03/21 12:48:29;;;;;;;6.50;4.87;;;7.30;99.90;;;;;;5079776;28;20979;-72
2021/03/21 12:50:56;;;;;;;5.10;4.60;;;7.40;99.90;;;;;;5079523;28;20468;-72
2021/03/21 12:53:28;;;;;;;9.50;6.50;;;7.50;99.90;;;;;;5084246;28;20414;-71
2021/03/21 12:55:57;;;;;;;7.70;6.20;;;7.70;99.90;;;;;;5083538;28;20419;-72
2021/03/21 12:58:23;;;;;;;6.57;5.67;;;7.90;99.90;;;;;;5083134;28;20457;-71
2021/03/21 13:00:50;;;;;;;8.40;5.67;;;7.90;99.90;;;;;;5080142;28;20447;-72
2021/03/21 13:03:31;;;;;;;8.10;5.40;;;7.90;99.90;;;;;;5081749;28;20486;-71
2021/03/21 13:05:58;;;;;;;7.07;6.20;;;7.70;99.90;;;;;;5079424;28;20426;-71
2021/03/21 13:08:25;;;;;;;6.43;5.57;;;7.80;99.90;;;;;;5083124;28;20465;-70
2021/03/21 13:10:50;;;;;;;6.67;4.67;;;7.90;99.90;;;;;;5079531;28;20436;-71
2021/03/21 13:13:17;;;;;;;5.23;4.83;;;8.10;99.90;;;;;;5081748;28;20952;-72
2021/03/21 13:15:43;;;;;;;6.23;5.13;;;8.00;99.90;;;;;;5080802;28;20466;-71
2021/03/21 13:18:09;;;;;;;7.83;5.80;;;8.00;99.90;;;;;;5080723;28;20499;-72
2021/03/21 13:20:35;;;;;;;5.87;4.40;;;7.90;99.90;;;;;;5081764;28;20467;-71
2021/03/21 13:23:01;;;;;;;6.10;5.47;;;7.90;99.90;;;;;;5079141;28;20185;-71
2021/03/21 13:25:31;;;;;;;6.73;5.27;;;7.70;99.90;;;;;;5082904;28;20203;-72
2021/03/21 13:28:00;;;;;;;6.57;5.17;;;7.70;99.90;;;;;;5079084;28;20472;-72
2021/03/21 13:30:30;;;;;;;6.73;5.50;;;7.80;99.90;;;;;;5079092;28;20798;-72
2021/03/21 13:32:56;;;;;;;10.10;6.07;;;7.90;99.90;;;;;;5078918;28;20415;-71
2021/03/21 13:35:25;;;;;;;11.80;5.10;;;8.00;99.90;;;;;;5082293;28;20455;-72
2021/03/21 13:37:51;;;;;;;7.60;5.17;;;8.10;99.90;;;;;;5079340;28;20432;-71
2021/03/21 13:40:21;;;;;;;6.60;5.73;;;8.20;99.90;;;;;;5081311;28;20423;-72
2021/03/21 13:42:47;;;;;;;7.63;5.93;;;8.30;99.90;;;;;;5079592;28;20623;-71